sensor_id;sensor_type;location;lat;lon;timestamp;P1;durP1;ratioP1;P2;durP2;ratioP2
24008;SDS011;12217;50.792;4.372;2024-03-22T00:01:55;55.03;;;35.72;;
24008;SDS011;12217;50.792;4.372;2024-03-22T00:04:21;49.97;;;35.17;;
24008;SDS011;12217;50.792;4.372;2024-03-22T00:06:47;51.85;;;34.60;;
24008;SDS011;12217;50.792;4.372;2024-03-22T00:09:14;52.08;;;33.80;;
24008;SDS011;12217;50.792;4.372;2024-03-22T00:11:41;49.83;;;33.97;;
24008;SDS011;12217;50.792;4.372;2024-03-22T00:14:07;49.25;;;33.35;;
24008;SDS011;12217;50.792;4.372;2024-03-22T00:16:33;51.22;;;34.05;;
24008;SDS011;12217;50.792;4.372;2024-03-22T00:18:59;50.10;;;35.00;;
24008;SDS011;12217;50.792;4.372;2024-03-22T00:21:25;51.72;;;34.58;;
24008;SDS011;12217;50.792;4.372;2024-03-22T00:23:50;53.63;;;34.83;;
24008;SDS011;12217;50.792;4.372;2024-03-22T00:26:16;48.97;;;35.33;;
24008;SDS011;12217;50.792;4.372;2024-03-22T00:28:42;48.10;;;34.22;;
24008;SDS011;12217;50.792;4.372;2024-03-22T00:31:11;49.53;;;33.08;;
24008;SDS011;12217;50.792;4.372;2024-03-22T00:33:36;51.58;;;34.72;;
24008;SDS011;12217;50.792;4.372;2024-03-22T00:36:02;56.17;;;35.40;;
24008;SDS011;12217;50.792;4.372;2024-03-22T00:38:28;51.58;;;34.47;;
24008;SDS011;12217;50.792;4.372;2024-03-22T00:40:53;49.17;;;33.10;;
24008;SDS011;12217;50.792;4.372;2024-03-22T00:43:19;51.78;;;34.75;;
24008;SDS011;12217;50.792;4.372;2024-03-22T00:45:45;49.45;;;33.22;;
24008;SDS011;12217;50.792;4.372;2024-03-22T00:48:11;49.08;;;34.10;;
24008;SDS011;12217;50.792;4.372;2024-03-22T00:50:37;47.45;;;33.05;;
24008;SDS011;12217;50.792;4.372;2024-03-22T00:53:03;47.25;;;33.90;;
24008;SDS011;12217;50.792;4.372;2024-03-22T00:55:30;48.42;;;33.97;;
24008;SDS011;12217;50.792;4.372;2024-03-22T00:57:56;45.72;;;31.85;;
24008;SDS011;12217;50.792;4.372;2024-03-22T01:00:22;48.97;;;33.20;;
24008;SDS011;12217;50.792;4.372;2024-03-22T01:02:49;48.67;;;32.85;;
24008;SDS011;12217;50.792;4.372;2024-03-22T01:05:15;50.75;;;32.60;;
24008;SDS011;12217;50.792;4.372;2024-03-22T01:07:41;54.60;;;35.33;;
24008;SDS011;12217;50.792;4.372;2024-03-22T01:10:07;52.22;;;35.10;;
24008;SDS011;12217;50.792;4.372;2024-03-22T01:12:32;49.90;;;34.05;;
24008;SDS011;12217;50.792;4.372;2024-03-22T01:14:58;51.83;;;34.58;;
24008;SDS011;12217;50.792;4.372;2024-03-22T01:17:24;56.78;;;36.25;;
24008;SDS011;12217;50.792;4.372;2024-03-22T01:19:50;54.28;;;37.03;;
24008;SDS011;12217;50.792;4.372;2024-03-22T01:22:16;55.58;;;37.08;;
24008;SDS011;12217;50.792;4.372;2024-03-22T01:24:43;55.15;;;36.90;;
24008;SDS011;12217;50.792;4.372;2024-03-22T01:27:09;54.97;;;38.78;;
24008;SDS011;12217;50.792;4.372;2024-03-22T01:29:35;52.88;;;35.50;;
24008;SDS011;12217;50.792;4.372;2024-03-22T01:32:03;56.35;;;38.03;;
24008;SDS011;12217;50.792;4.372;2024-03-22T01:34:30;61.78;;;37.63;;
24008;SDS011;12217;50.792;4.372;2024-03-22T01:36:55;57.53;;;36.00;;
24008;SDS011;12217;50.792;4.372;2024-03-22T01:39:21;54.40;;;35.85;;
24008;SDS011;12217;50.792;4.372;2024-03-22T01:41:47;54.22;;;36.03;;
24008;SDS011;12217;50.792;4.372;2024-03-22T01:44:14;53.83;;;36.03;;
24008;SDS011;12217;50.792;4.372;2024-03-22T01:46:40;56.67;;;37.63;;
24008;SDS011;12217;50.792;4.372;2024-03-22T01:49:07;49.33;;;35.45;;
24008;SDS011;12217;50.792;4.372;2024-03-22T01:51:34;51.85;;;34.83;;
24008;SDS011;12217;50.792;4.372;2024-03-22T01:54:01;54.83;;;35.75;;
24008;SDS011;12217;50.792;4.372;2024-03-22T01:56:28;52.83;;;35.40;;
24008;SDS011;12217;50.792;4.372;2024-03-22T01:58:55;51.15;;;35.80;;
24008;SDS011;12217;50.792;4.372;2024-03-22T02:01:22;53.45;;;34.30;;
24008;SDS011;12217;50.792;4.372;2024-03-22T02:03:48;56.80;;;34.85;;
24008;SDS011;12217;50.792;4.372;2024-03-22T02:06:14;48.97;;;33.42;;
24008;SDS011;12217;50.792;4.372;2024-03-22T02:08:40;52.95;;;35.40;;
24008;SDS011;12217;50.792;4.372;2024-03-22T02:11:07;51.10;;;34.80;;
24008;SDS011;12217;50.792;4.372;2024-03-22T02:13:34;51.67;;;35.28;;
24008;SDS011;12217;50.792;4.372;2024-03-22T02:16:02;54.67;;;34.97;;
24008;SDS011;12217;50.792;4.372;2024-03-22T02:18:28;52.13;;;34.97;;
24008;SDS011;12217;50.792;4.372;2024-03-22T02:20:54;51.60;;;34.78;;
24008;SDS011;12217;50.792;4.372;2024-03-22T02:23:23;54.55;;;35.38;;
24008;SDS011;12217;50.792;4.372;2024-03-22T02:25:58;56.80;;;36.05;;
24008;SDS011;12217;50.792;4.372;2024-03-22T02:28:24;52.85;;;36.08;;
24008;SDS011;12217;50.792;4.372;2024-03-22T02:30:50;54.63;;;34.72;;
24008;SDS011;12217;50.792;4.372;2024-03-22T02:33:15;54.45;;;34.13;;
24008;SDS011;12217;50.792;4.372;2024-03-22T02:35:41;53.53;;;35.05;;
24008;SDS011;12217;50.792;4.372;2024-03-22T02:38:07;58.95;;;34.55;;
24008;SDS011;12217;50.792;4.372;2024-03-22T02:40:32;47.45;;;32.72;;
24008;SDS011;12217;50.792;4.372;2024-03-22T02:42:58;50.28;;;32.63;;
24008;SDS011;12217;50.792;4.372;2024-03-22T02:45:23;48.65;;;32.47;;
24008;SDS011;12217;50.792;4.372;2024-03-22T02:47:50;49.17;;;32.80;;
24008;SDS011;12217;50.792;4.372;2024-03-22T02:50:15;50.92;;;31.98;;
24008;SDS011;12217;50.792;4.372;2024-03-22T02:52:41;51.83;;;33.58;;
24008;SDS011;12217;50.792;4.372;2024-03-22T02:55:06;48.85;;;31.67;;
24008;SDS011;12217;50.792;4.372;2024-03-22T02:57:32;49.28;;;32.17;;
24008;SDS011;12217;50.792;4.372;2024-03-22T02:59:59;46.92;;;31.13;;
24008;SDS011;12217;50.792;4.372;2024-03-22T03:02:25;44.88;;;30.05;;
24008;SDS011;12217;50.792;4.372;2024-03-22T03:04:51;43.30;;;29.83;;
24008;SDS011;12217;50.792;4.372;2024-03-22T03:07:17;41.70;;;29.02;;
24008;SDS011;12217;50.792;4.372;2024-03-22T03:09:42;44.17;;;30.20;;
24008;SDS011;12217;50.792;4.372;2024-03-22T03:12:08;45.60;;;28.75;;
24008;SDS011;12217;50.792;4.372;2024-03-22T03:14:33;45.20;;;28.77;;
24008;SDS011;12217;50.792;4.372;2024-03-22T03:16:59;44.20;;;28.65;;
24008;SDS011;12217;50.792;4.372;2024-03-22T03:19:24;44.42;;;28.77;;
24008;SDS011;12217;50.792;4.372;2024-03-22T03:21:50;44.30;;;27.27;;
24008;SDS011;12217;50.792;4.372;2024-03-22T03:24:16;42.80;;;28.27;;
24008;SDS011;12217;50.792;4.372;2024-03-22T03:26:41;42.50;;;28.30;;
24008;SDS011;12217;50.792;4.372;2024-03-22T03:29:07;40.17;;;26.55;;
24008;SDS011;12217;50.792;4.372;2024-03-22T03:31:33;40.10;;;26.48;;
24008;SDS011;12217;50.792;4.372;2024-03-22T03:33:58;39.30;;;26.13;;
24008;SDS011;12217;50.792;4.372;2024-03-22T03:36:24;37.92;;;26.80;;
24008;SDS011;12217;50.792;4.372;2024-03-22T03:38:49;37.85;;;25.90;;
24008;SDS011;12217;50.792;4.372;2024-03-22T03:41:15;37.08;;;25.08;;
24008;SDS011;12217;50.792;4.372;2024-03-22T03:43:41;39.50;;;25.67;;
24008;SDS011;12217;50.792;4.372;2024-03-22T03:46:06;35.67;;;23.73;;
24008;SDS011;12217;50.792;4.372;2024-03-22T03:48:32;36.72;;;25.50;;
24008;SDS011;12217;50.792;4.372;2024-03-22T03:50:58;40.17;;;24.90;;
24008;SDS011;12217;50.792;4.372;2024-03-22T03:53:27;37.53;;;25.50;;
24008;SDS011;12217;50.792;4.372;2024-03-22T03:55:53;40.70;;;25.20;;
24008;SDS011;12217;50.792;4.372;2024-03-22T03:58:19;36.35;;;25.00;;
24008;SDS011;12217;50.792;4.372;2024-03-22T04:00:45;35.75;;;25.35;;
24008;SDS011;12217;50.792;4.372;2024-03-22T04:03:10;34.50;;;24.35;;
24008;SDS011;12217;50.792;4.372;2024-03-22T04:05:36;33.90;;;24.63;;
24008;SDS011;12217;50.792;4.372;2024-03-22T04:08:01;36.83;;;24.25;;
24008;SDS011;12217;50.792;4.372;2024-03-22T04:10:27;37.33;;;24.85;;
24008;SDS011;12217;50.792;4.372;2024-03-22T04:12:53;35.30;;;23.50;;
24008;SDS011;12217;50.792;4.372;2024-03-22T04:15:19;36.70;;;23.88;;
24008;SDS011;12217;50.792;4.372;2024-03-22T04:17:44;35.67;;;24.02;;
24008;SDS011;12217;50.792;4.372;2024-03-22T04:20:10;36.20;;;23.50;;
24008;SDS011;12217;50.792;4.372;2024-03-22T04:22:36;35.08;;;23.65;;
24008;SDS011;12217;50.792;4.372;2024-03-22T04:25:02;32.00;;;22.10;;
24008;SDS011;12217;50.792;4.372;2024-03-22T04:27:28;35.50;;;23.08;;
24008;SDS011;12217;50.792;4.372;2024-03-22T04:29:54;31.88;;;21.92;;
24008;SDS011;12217;50.792;4.372;2024-03-22T04:32:19;32.40;;;22.67;;
24008;SDS011;12217;50.792;4.372;2024-03-22T04:34:45;31.58;;;22.25;;
24008;SDS011;12217;50.792;4.372;2024-03-22T04:37:10;34.30;;;22.27;;
24008;SDS011;12217;50.792;4.372;2024-03-22T04:39:39;31.60;;;22.05;;
24008;SDS011;12217;50.792;4.372;2024-03-22T04:42:06;32.60;;;21.40;;
24008;SDS011;12217;50.792;4.372;2024-03-22T04:44:32;36.17;;;22.42;;
24008;SDS011;12217;50.792;4.372;2024-03-22T04:46:57;34.83;;;22.95;;
24008;SDS011;12217;50.792;4.372;2024-03-22T04:49:23;34.42;;;23.23;;
24008;SDS011;12217;50.792;4.372;2024-03-22T04:51:49;30.58;;;21.88;;
24008;SDS011;12217;50.792;4.372;2024-03-22T04:54:14;32.03;;;21.98;;
24008;SDS011;12217;50.792;4.372;2024-03-22T04:56:40;30.50;;;22.30;;
24008;SDS011;12217;50.792;4.372;2024-03-22T04:59:05;31.20;;;21.45;;
24008;SDS011;12217;50.792;4.372;2024-03-22T05:01:31;34.72;;;22.40;;
24008;SDS011;12217;50.792;4.372;2024-03-22T05:03:57;34.33;;;22.42;;
24008;SDS011;12217;50.792;4.372;2024-03-22T05:06:22;31.83;;;22.77;;
24008;SDS011;12217;50.792;4.372;2024-03-22T05:08:48;34.17;;;23.13;;
24008;SDS011;12217;50.792;4.372;2024-03-22T05:11:13;31.20;;;21.80;;
24008;SDS011;12217;50.792;4.372;2024-03-22T05:13:39;32.20;;;21.15;;
24008;SDS011;12217;50.792;4.372;2024-03-22T05:16:05;32.78;;;22.40;;
24008;SDS011;12217;50.792;4.372;2024-03-22T05:18:31;35.35;;;23.75;;
24008;SDS011;12217;50.792;4.372;2024-03-22T05:20:57;33.05;;;22.48;;
24008;SDS011;12217;50.792;4.372;2024-03-22T05:23:22;35.60;;;23.33;;
24008;SDS011;12217;50.792;4.372;2024-03-22T05:25:48;33.25;;;23.35;;
24008;SDS011;12217;50.792;4.372;2024-03-22T05:28:14;31.75;;;23.02;;
24008;SDS011;12217;50.792;4.372;2024-03-22T05:30:39;36.55;;;23.35;;
24008;SDS011;12217;50.792;4.372;2024-03-22T05:33:05;36.38;;;23.48;;
24008;SDS011;12217;50.792;4.372;2024-03-22T05:35:31;36.60;;;23.85;;
24008;SDS011;12217;50.792;4.372;2024-03-22T05:37:56;36.85;;;23.73;;
24008;SDS011;12217;50.792;4.372;2024-03-22T05:40:22;35.72;;;23.77;;
24008;SDS011;12217;50.792;4.372;2024-03-22T05:42:48;36.78;;;23.50;;
24008;SDS011;12217;50.792;4.372;2024-03-22T05:45:13;34.10;;;24.25;;
24008;SDS011;12217;50.792;4.372;2024-03-22T05:47:39;37.08;;;23.50;;
24008;SDS011;12217;50.792;4.372;2024-03-22T05:50:05;32.53;;;22.58;;
24008;SDS011;12217;50.792;4.372;2024-03-22T05:52:34;35.85;;;23.88;;
24008;SDS011;12217;50.792;4.372;2024-03-22T05:55:00;35.70;;;23.60;;
24008;SDS011;12217;50.792;4.372;2024-03-22T05:57:25;35.40;;;23.58;;
24008;SDS011;12217;50.792;4.372;2024-03-22T05:59:51;36.70;;;23.45;;
24008;SDS011;12217;50.792;4.372;2024-03-22T06:02:18;38.70;;;24.45;;
24008;SDS011;12217;50.792;4.372;2024-03-22T06:04:44;37.00;;;24.58;;
24008;SDS011;12217;50.792;4.372;2024-03-22T06:07:10;37.15;;;24.20;;
24008;SDS011;12217;50.792;4.372;2024-03-22T06:09:35;38.97;;;24.25;;
24008;SDS011;12217;50.792;4.372;2024-03-22T06:12:13;39.20;;;21.48;;
24008;SDS011;12217;50.792;4.372;2024-03-22T06:14:40;32.65;;;21.85;;
24008;SDS011;12217;50.792;4.372;2024-03-22T06:17:07;31.25;;;20.60;;
24008;SDS011;12217;50.792;4.372;2024-03-22T06:19:34;25.85;;;18.40;;
24008;SDS011;12217;50.792;4.372;2024-03-22T06:22:00;25.65;;;18.25;;
24008;SDS011;12217;50.792;4.372;2024-03-22T06:24:27;25.80;;;18.90;;
24008;SDS011;12217;50.792;4.372;2024-03-22T06:26:53;25.75;;;18.65;;
24008;SDS011;12217;50.792;4.372;2024-03-22T06:29:19;26.27;;;18.02;;
24008;SDS011;12217;50.792;4.372;2024-03-22T06:31:44;25.60;;;17.55;;
24008;SDS011;12217;50.792;4.372;2024-03-22T06:34:11;24.02;;;17.30;;
24008;SDS011;12217;50.792;4.372;2024-03-22T06:36:37;26.50;;;17.92;;
24008;SDS011;12217;50.792;4.372;2024-03-22T06:39:02;26.60;;;17.35;;
24008;SDS011;12217;50.792;4.372;2024-03-22T06:41:31;27.70;;;18.10;;
24008;SDS011;12217;50.792;4.372;2024-03-22T06:43:57;27.50;;;18.25;;
24008;SDS011;12217;50.792;4.372;2024-03-22T06:46:23;24.80;;;17.25;;
24008;SDS011;12217;50.792;4.372;2024-03-22T06:48:49;28.42;;;19.35;;
24008;SDS011;12217;50.792;4.372;2024-03-22T06:51:15;31.23;;;18.40;;
24008;SDS011;12217;50.792;4.372;2024-03-22T06:53:41;29.73;;;18.83;;
24008;SDS011;12217;50.792;4.372;2024-03-22T06:56:07;30.20;;;18.13;;
24008;SDS011;12217;50.792;4.372;2024-03-22T06:58:35;28.33;;;18.13;;
24008;SDS011;12217;50.792;4.372;2024-03-22T07:01:01;30.08;;;18.75;;
24008;SDS011;12217;50.792;4.372;2024-03-22T07:03:27;30.35;;;19.40;;
24008;SDS011;12217;50.792;4.372;2024-03-22T07:05:53;32.40;;;18.88;;
24008;SDS011;12217;50.792;4.372;2024-03-22T07:08:18;31.13;;;19.10;;
24008;SDS011;12217;50.792;4.372;2024-03-22T07:10:44;31.25;;;19.08;;
24008;SDS011;12217;50.792;4.372;2024-03-22T07:13:10;32.70;;;17.95;;
24008;SDS011;12217;50.792;4.372;2024-03-22T07:15:36;34.65;;;20.00;;
24008;SDS011;12217;50.792;4.372;2024-03-22T07:18:02;32.08;;;18.85;;
24008;SDS011;12217;50.792;4.372;2024-03-22T07:20:28;33.53;;;19.75;;
24008;SDS011;12217;50.792;4.372;2024-03-22T07:22:55;32.95;;;19.35;;
24008;SDS011;12217;50.792;4.372;2024-03-22T07:25:21;31.85;;;20.90;;
24008;SDS011;12217;50.792;4.372;2024-03-22T07:27:46;33.15;;;20.52;;
24008;SDS011;12217;50.792;4.372;2024-03-22T07:30:14;32.20;;;20.35;;
24008;SDS011;12217;50.792;4.372;2024-03-22T07:32:39;34.03;;;20.35;;
24008;SDS011;12217;50.792;4.372;2024-03-22T07:35:05;38.03;;;20.90;;
24008;SDS011;12217;50.792;4.372;2024-03-22T07:37:32;33.63;;;20.55;;
24008;SDS011;12217;50.792;4.372;2024-03-22T07:40:01;34.42;;;20.30;;
24008;SDS011;12217;50.792;4.372;2024-03-22T07:42:27;34.58;;;20.88;;
24008;SDS011;12217;50.792;4.372;2024-03-22T07:44:53;34.63;;;20.70;;
24008;SDS011;12217;50.792;4.372;2024-03-22T07:47:18;33.63;;;20.35;;
24008;SDS011;12217;50.792;4.372;2024-03-22T07:49:44;34.90;;;20.67;;
24008;SDS011;12217;50.792;4.372;2024-03-22T07:52:10;33.13;;;20.52;;
24008;SDS011;12217;50.792;4.372;2024-03-22T07:54:36;35.63;;;20.33;;
24008;SDS011;12217;50.792;4.372;2024-03-22T07:57:01;28.60;;;18.50;;
24008;SDS011;12217;50.792;4.372;2024-03-22T07:59:27;28.02;;;17.92;;
24008;SDS011;12217;50.792;4.372;2024-03-22T08:01:53;28.80;;;18.77;;
24008;SDS011;12217;50.792;4.372;2024-03-22T08:04:19;29.25;;;19.23;;
24008;SDS011;12217;50.792;4.372;2024-03-22T08:06:45;27.73;;;19.55;;
24008;SDS011;12217;50.792;4.372;2024-03-22T08:09:11;29.45;;;19.92;;
24008;SDS011;12217;50.792;4.372;2024-03-22T08:11:37;32.75;;;20.27;;
24008;SDS011;12217;50.792;4.372;2024-03-22T08:14:02;33.95;;;21.70;;
24008;SDS011;12217;50.792;4.372;2024-03-22T08:16:31;33.97;;;22.17;;
24008;SDS011;12217;50.792;4.372;2024-03-22T08:18:57;35.70;;;23.02;;
24008;SDS011;12217;50.792;4.372;2024-03-22T08:21:23;37.70;;;22.65;;
24008;SDS011;12217;50.792;4.372;2024-03-22T08:23:49;39.45;;;23.67;;
24008;SDS011;12217;50.792;4.372;2024-03-22T08:26:15;32.70;;;22.58;;
24008;SDS011;12217;50.792;4.372;2024-03-22T08:28:41;31.73;;;21.85;;
24008;SDS011;12217;50.792;4.372;2024-03-22T08:31:07;35.97;;;23.50;;
24008;SDS011;12217;50.792;4.372;2024-03-22T08:33:32;34.95;;;22.60;;
24008;SDS011;12217;50.792;4.372;2024-03-22T08:35:58;29.65;;;21.45;;
24008;SDS011;12217;50.792;4.372;2024-03-22T08:38:24;32.05;;;21.40;;
24008;SDS011;12217;50.792;4.372;2024-03-22T08:40:50;33.20;;;21.88;;
24008;SDS011;12217;50.792;4.372;2024-03-22T08:43:15;33.70;;;21.63;;
24008;SDS011;12217;50.792;4.372;2024-03-22T08:45:41;31.98;;;21.13;;
24008;SDS011;12217;50.792;4.372;2024-03-22T08:48:07;30.27;;;19.88;;
24008;SDS011;12217;50.792;4.372;2024-03-22T08:50:33;30.48;;;20.70;;
24008;SDS011;12217;50.792;4.372;2024-03-22T08:52:59;31.88;;;20.98;;
24008;SDS011;12217;50.792;4.372;2024-03-22T08:55:28;32.47;;;21.08;;
24008;SDS011;12217;50.792;4.372;2024-03-22T08:57:53;31.58;;;20.05;;
24008;SDS011;12217;50.792;4.372;2024-03-22T09:00:19;30.35;;;20.30;;
24008;SDS011;12217;50.792;4.372;2024-03-22T09:02:45;29.33;;;19.10;;
24008;SDS011;12217;50.792;4.372;2024-03-22T09:05:10;33.50;;;20.63;;
24008;SDS011;12217;50.792;4.372;2024-03-22T09:07:36;29.70;;;21.23;;
24008;SDS011;12217;50.792;4.372;2024-03-22T09:10:02;30.02;;;20.70;;
24008;SDS011;12217;50.792;4.372;2024-03-22T09:12:27;32.60;;;21.45;;
24008;SDS011;12217;50.792;4.372;2024-03-22T09:14:53;30.92;;;21.38;;
24008;SDS011;12217;50.792;4.372;2024-03-22T09:17:18;31.20;;;20.92;;
24008;SDS011;12217;50.792;4.372;2024-03-22T09:19:56;30.77;;;20.92;;
24008;SDS011;12217;50.792;4.372;2024-03-22T09:22:22;31.92;;;20.30;;
24008;SDS011;12217;50.792;4.372;2024-03-22T09:24:48;31.63;;;20.55;;
24008;SDS011;12217;50.792;4.372;2024-03-22T09:27:13;28.98;;;19.80;;
24008;SDS011;12217;50.792;4.372;2024-03-22T09:29:39;29.15;;;19.55;;
24008;SDS011;12217;50.792;4.372;2024-03-22T09:32:05;27.90;;;20.33;;
24008;SDS011;12217;50.792;4.372;2024-03-22T09:34:30;27.60;;;19.83;;
24008;SDS011;12217;50.792;4.372;2024-03-22T09:36:56;28.90;;;20.52;;
24008;SDS011;12217;50.792;4.372;2024-03-22T09:39:22;30.98;;;21.60;;
24008;SDS011;12217;50.792;4.372;2024-03-22T09:41:48;31.17;;;20.88;;
24008;SDS011;12217;50.792;4.372;2024-03-22T09:44:18;32.00;;;21.55;;
24008;SDS011;12217;50.792;4.372;2024-03-22T09:46:44;32.13;;;22.33;;
24008;SDS011;12217;50.792;4.372;2024-03-22T09:49:12;31.73;;;22.67;;
24008;SDS011;12217;50.792;4.372;2024-03-22T09:51:41;31.80;;;22.58;;
24008;SDS011;12217;50.792;4.372;2024-03-22T09:54:11;30.08;;;21.90;;
24008;SDS011;12217;50.792;4.372;2024-03-22T09:56:39;31.27;;;21.25;;
24008;SDS011;12217;50.792;4.372;2024-03-22T09:59:05;30.25;;;21.17;;
24008;SDS011;12217;50.792;4.372;2024-03-22T10:01:35;29.55;;;20.15;;
24008;SDS011;12217;50.792;4.372;2024-03-22T10:04:02;28.30;;;19.73;;
24008;SDS011;12217;50.792;4.372;2024-03-22T10:06:28;27.83;;;20.70;;
24008;SDS011;12217;50.792;4.372;2024-03-22T10:08:57;30.08;;;20.65;;
24008;SDS011;12217;50.792;4.372;2024-03-22T10:11:25;28.73;;;20.40;;
24008;SDS011;12217;50.792;4.372;2024-03-22T10:13:54;31.27;;;20.40;;
24008;SDS011;12217;50.792;4.372;2024-03-22T10:16:23;25.80;;;18.92;;
24008;SDS011;12217;50.792;4.372;2024-03-22T10:18:49;31.33;;;21.10;;
24008;SDS011;12217;50.792;4.372;2024-03-22T10:21:18;26.40;;;17.88;;
24008;SDS011;12217;50.792;4.372;2024-03-22T10:23:44;29.73;;;18.67;;
24008;SDS011;12217;50.792;4.372;2024-03-22T10:26:12;22.20;;;17.38;;
24008;SDS011;12217;50.792;4.372;2024-03-22T10:28:43;22.75;;;16.98;;
24008;SDS011;12217;50.792;4.372;2024-03-22T10:31:12;21.98;;;16.58;;
24008;SDS011;12217;50.792;4.372;2024-03-22T10:33:39;26.00;;;16.73;;
24008;SDS011;12217;50.792;4.372;2024-03-22T10:36:06;27.95;;;17.42;;
24008;SDS011;12217;50.792;4.372;2024-03-22T10:38:32;25.67;;;18.20;;
24008;SDS011;12217;50.792;4.372;2024-03-22T10:41:01;25.60;;;16.58;;
24008;SDS011;12217;50.792;4.372;2024-03-22T10:43:28;27.45;;;17.77;;
24008;SDS011;12217;50.792;4.372;2024-03-22T10:45:54;28.13;;;17.67;;
24008;SDS011;12217;50.792;4.372;2024-03-22T10:48:24;26.27;;;17.92;;
24008;SDS011;12217;50.792;4.372;2024-03-22T10:50:52;24.52;;;17.25;;
24008;SDS011;12217;50.792;4.372;2024-03-22T10:53:22;21.17;;;16.25;;
24008;SDS011;12217;50.792;4.372;2024-03-22T10:55:50;22.45;;;16.40;;
24008;SDS011;12217;50.792;4.372;2024-03-22T10:58:18;24.85;;;17.17;;
24008;SDS011;12217;50.792;4.372;2024-03-22T11:00:46;25.98;;;17.05;;
24008;SDS011;12217;50.792;4.372;2024-03-22T11:03:12;24.52;;;16.55;;
24008;SDS011;12217;50.792;4.372;2024-03-22T11:05:48;24.85;;;17.10;;
24008;SDS011;12217;50.792;4.372;2024-03-22T11:10:51;24.08;;;16.80;;
24008;SDS011;12217;50.792;4.372;2024-03-22T11:13:18;25.52;;;15.88;;
24008;SDS011;12217;50.792;4.372;2024-03-22T11:15:44;23.90;;;16.77;;
24008;SDS011;12217;50.792;4.372;2024-03-22T11:18:12;23.85;;;16.63;;
24008;SDS011;12217;50.792;4.372;2024-03-22T11:20:38;24.25;;;16.55;;
24008;SDS011;12217;50.792;4.372;2024-03-22T11:23:04;28.50;;;16.88;;
24008;SDS011;12217;50.792;4.372;2024-03-22T11:25:33;21.20;;;16.17;;
24008;SDS011;12217;50.792;4.372;2024-03-22T11:27:59;23.20;;;15.98;;
24008;SDS011;12217;50.792;4.372;2024-03-22T11:30:28;26.08;;;15.55;;
24008;SDS011;12217;50.792;4.372;2024-03-22T11:32:54;20.92;;;15.63;;
24008;SDS011;12217;50.792;4.372;2024-03-22T11:35:20;25.77;;;15.95;;
24008;SDS011;12217;50.792;4.372;2024-03-22T11:37:47;20.50;;;15.98;;
24008;SDS011;12217;50.792;4.372;2024-03-22T11:40:14;22.23;;;15.35;;
24008;SDS011;12217;50.792;4.372;2024-03-22T11:42:40;25.50;;;15.80;;
24008;SDS011;12217;50.792;4.372;2024-03-22T11:45:10;21.52;;;14.43;;
24008;SDS011;12217;50.792;4.372;2024-03-22T11:47:38;21.85;;;14.90;;
24008;SDS011;12217;50.792;4.372;2024-03-22T11:50:04;19.95;;;15.23;;
24008;SDS011;12217;50.792;4.372;2024-03-22T11:52:30;21.48;;;16.42;;
24008;SDS011;12217;50.792;4.372;2024-03-22T11:54:56;21.48;;;15.75;;
24008;SDS011;12217;50.792;4.372;2024-03-22T11:57:22;20.25;;;16.00;;
24008;SDS011;12217;50.792;4.372;2024-03-22T11:59:48;20.90;;;15.32;;
24008;SDS011;12217;50.792;4.372;2024-03-22T12:02:14;25.30;;;16.33;;
24008;SDS011;12217;50.792;4.372;2024-03-22T12:04:49;22.98;;;15.93;;
24008;SDS011;12217;50.792;4.372;2024-03-22T12:07:15;23.15;;;15.68;;
24008;SDS011;12217;50.792;4.372;2024-03-22T12:09:42;26.73;;;15.27;;
24008;SDS011;12217;50.792;4.372;2024-03-22T12:12:09;20.63;;;15.80;;
24008;SDS011;12217;50.792;4.372;2024-03-22T12:14:36;23.80;;;16.30;;
24008;SDS011;12217;50.792;4.372;2024-03-22T12:17:02;23.70;;;16.80;;
24008;SDS011;12217;50.792;4.372;2024-03-22T12:19:28;24.98;;;16.40;;
24008;SDS011;12217;50.792;4.372;2024-03-22T12:21:54;26.63;;;16.70;;
24008;SDS011;12217;50.792;4.372;2024-03-22T12:24:20;21.10;;;15.90;;
24008;SDS011;12217;50.792;4.372;2024-03-22T12:26:46;27.52;;;17.15;;
24008;SDS011;12217;50.792;4.372;2024-03-22T12:29:13;24.30;;;17.50;;
24008;SDS011;12217;50.792;4.372;2024-03-22T12:31:40;27.50;;;17.10;;
24008;SDS011;12217;50.792;4.372;2024-03-22T12:34:06;25.92;;;15.63;;
24008;SDS011;12217;50.792;4.372;2024-03-22T12:36:31;23.38;;;18.42;;
24008;SDS011;12217;50.792;4.372;2024-03-22T12:38:57;29.88;;;19.48;;
24008;SDS011;12217;50.792;4.372;2024-03-22T12:41:23;23.50;;;16.25;;
24008;SDS011;12217;50.792;4.372;2024-03-22T12:43:48;21.58;;;16.05;;
24008;SDS011;12217;50.792;4.372;2024-03-22T12:46:14;25.33;;;16.30;;
24008;SDS011;12217;50.792;4.372;2024-03-22T12:48:39;25.35;;;15.88;;
24008;SDS011;12217;50.792;4.372;2024-03-22T12:51:05;24.30;;;17.60;;
24008;SDS011;12217;50.792;4.372;2024-03-22T12:53:32;24.40;;;16.25;;
24008;SDS011;12217;50.792;4.372;2024-03-22T12:55:57;24.42;;;16.13;;
24008;SDS011;12217;50.792;4.372;2024-03-22T12:58:23;25.30;;;17.45;;
24008;SDS011;12217;50.792;4.372;2024-03-22T13:00:48;20.45;;;15.38;;
24008;SDS011;12217;50.792;4.372;2024-03-22T13:03:14;28.73;;;16.48;;
24008;SDS011;12217;50.792;4.372;2024-03-22T13:05:41;24.20;;;16.42;;
24008;SDS011;12217;50.792;4.372;2024-03-22T13:08:07;24.20;;;17.38;;
24008;SDS011;12217;50.792;4.372;2024-03-22T13:10:32;21.48;;;15.35;;
24008;SDS011;12217;50.792;4.372;2024-03-22T13:12:58;21.73;;;15.55;;
24008;SDS011;12217;50.792;4.372;2024-03-22T13:15:24;24.80;;;16.23;;
24008;SDS011;12217;50.792;4.372;2024-03-22T13:17:50;23.15;;;15.65;;
24008;SDS011;12217;50.792;4.372;2024-03-22T13:20:17;21.10;;;15.15;;
24008;SDS011;12217;50.792;4.372;2024-03-22T13:22:44;24.13;;;15.90;;
24008;SDS011;12217;50.792;4.372;2024-03-22T13:25:10;19.58;;;14.52;;
24008;SDS011;12217;50.792;4.372;2024-03-22T13:27:36;25.23;;;17.23;;
24008;SDS011;12217;50.792;4.372;2024-03-22T13:30:06;29.02;;;16.13;;
24008;SDS011;12217;50.792;4.372;2024-03-22T13:32:35;27.30;;;14.52;;
24008;SDS011;12217;50.792;4.372;2024-03-22T13:35:04;22.63;;;15.45;;
24008;SDS011;12217;50.792;4.372;2024-03-22T13:37:30;35.95;;;17.35;;
24008;SDS011;12217;50.792;4.372;2024-03-22T13:39:57;17.67;;;14.20;;
24008;SDS011;12217;50.792;4.372;2024-03-22T13:42:22;21.63;;;14.93;;
24008;SDS011;12217;50.792;4.372;2024-03-22T13:44:48;20.83;;;13.73;;
24008;SDS011;12217;50.792;4.372;2024-03-22T13:47:14;19.67;;;14.88;;
24008;SDS011;12217;50.792;4.372;2024-03-22T13:49:40;21.92;;;15.13;;
24008;SDS011;12217;50.792;4.372;2024-03-22T13:52:08;20.73;;;15.07;;
24008;SDS011;12217;50.792;4.372;2024-03-22T13:54:34;23.58;;;15.32;;
24008;SDS011;12217;50.792;4.372;2024-03-22T13:57:00;21.90;;;15.73;;
24008;SDS011;12217;50.792;4.372;2024-03-22T13:59:26;25.88;;;16.48;;
24008;SDS011;12217;50.792;4.372;2024-03-22T14:01:53;27.88;;;16.48;;
24008;SDS011;12217;50.792;4.372;2024-03-22T14:04:18;26.42;;;16.08;;
24008;SDS011;12217;50.792;4.372;2024-03-22T14:06:47;23.73;;;15.68;;
24008;SDS011;12217;50.792;4.372;2024-03-22T14:09:12;24.05;;;16.20;;
24008;SDS011;12217;50.792;4.372;2024-03-22T14:11:41;26.95;;;15.80;;
24008;SDS011;12217;50.792;4.372;2024-03-22T14:14:12;25.92;;;16.25;;
24008;SDS011;12217;50.792;4.372;2024-03-22T14:16:38;24.98;;;14.73;;
24008;SDS011;12217;50.792;4.372;2024-03-22T14:19:04;22.52;;;15.70;;